Time;durP1;ratioP1;P1;durP2;ratioP2;P2;SDS_P1;SDS_P2;PMS_P1;PMS_P2;Temp;Humidity;BMP_temperature;BMP_pressure;BME280_temperature;BME280_humidity;BME280_pressure;Samples;Min_cycle;Max_cycle;Signal;HPM_P1;HPM_P2
2022/01/23 00:00:45;;;;;;;80.15;43.33;;;;;;;4.27;95.74;102894.28;5003523;28;20489;-80
2022/01/23 00:03:17;;;;;;;81.25;43.38;;;;;;;4.47;95.97;102922.03;4970460;28;20043;-85
2022/01/23 00:05:47;;;;;;;83.55;42.83;;;;;;;4.47;95.23;102922.03;4966182;28;20076;-83
2022/01/23 00:08:20;;;;;;;76.03;40.67;;;;;;;4.45;95.20;102902.25;4968521;28;20057;-86
2022/01/23 00:10:51;;;;;;;79.25;41.53;;;;;;;4.39;95.33;102908.50;4965381;28;20043;-85
2022/01/23 00:13:37;;;;;;;77.97;39.70;;;;;;;4.28;95.74;102906.34;4963632;29;20051;-87
2022/01/23 00:18:49;;;;;;;75.45;39.50;;;;;;;4.39;94.79;102907.66;4963525;28;20058;-85
2022/01/23 00:21:15;;;;;;;72.53;41.92;;;;;;;4.44;94.82;102927.31;4963858;28;20055;-84
2022/01/23 00:32:33;;;;;;;78.18;42.20;;;;;;;4.54;94.71;102922.63;4951025;28;20043;-84
2022/01/23 00:34:59;;;;;;;82.22;43.00;;;;;;;4.56;94.35;102934.63;4963520;28;20073;-85
2022/01/23 00:37:26;;;;;;;77.30;42.20;;;;;;;4.58;94.30;102930.22;4962601;28;20130;-84
2022/01/23 00:39:53;;;;;;;74.72;39.97;;;;;;;4.57;95.21;102925.09;4963036;29;20051;-85
2022/01/23 00:42:21;;;;;;;77.95;41.70;;;;;;;4.47;94.98;102893.50;4962952;28;20047;-84
2022/01/23 00:44:53;;;;;;;76.63;42.45;;;;;;;4.59;94.70;102918.09;4963693;28;20054;-83
2022/01/23 00:47:20;;;;;;;75.30;41.63;;;;;;;4.58;95.14;102908.63;4964667;28;20215;-83
2022/01/23 00:49:46;;;;;;;81.80;44.00;;;;;;;4.48;95.26;102902.13;4966086;28;20047;-84
2022/01/23 00:52:17;;;;;;;78.15;43.42;;;;;;;4.53;94.34;102906.22;4963857;29;20039;-83
2022/01/23 00:54:43;;;;;;;86.53;45.22;;;;;;;4.53;95.18;102908.81;4964350;28;20058;-84
2022/01/23 00:57:10;;;;;;;79.63;44.05;;;;;;;4.54;95.20;102909.66;4964659;28;20039;-83
2022/01/23 00:59:38;;;;;;;78.47;43.63;;;;;;;4.64;94.34;102908.41;4963794;28;20051;-85
2022/01/23 01:02:05;;;;;;;77.97;42.35;;;;;;;4.46;95.15;102893.56;4964592;28;20487;-84
2022/01/23 01:04:31;;;;;;;82.97;44.42;;;;;;;4.57;95.02;102893.97;4966115;28;20082;-82
2022/01/23 01:06:58;;;;;;;84.07;45.08;;;;;;;4.58;94.39;102888.72;4963972;28;20082;-82
2022/01/23 01:09:25;;;;;;;83.50;43.53;;;;;;;4.54;94.68;102892.34;4960911;29;20089;-82
2022/01/23 01:12:03;;;;;;;77.60;43.45;;;;;;;4.42;94.97;102879.03;4962147;28;20082;-83
2022/01/23 01:17:25;;;;;;;76.10;42.85;;;;;;;4.47;95.61;102879.69;4960191;28;20071;-83
2022/01/23 01:30:58;;;;;;;86.40;42.30;;;;;;;4.53;94.83;102887.22;4965727;28;20066;-83
2022/01/23 01:33:38;;;;;;;78.45;43.00;;;;;;;4.52;94.99;102888.97;4965772;29;20043;-83
2022/01/23 01:36:18;;;;;;;80.00;43.03;;;;;;;4.49;94.74;102896.88;4966920;29;20055;-83
2022/01/23 01:38:45;;;;;;;79.07;41.92;;;;;;;4.48;95.33;102886.56;4966883;29;20082;-84
2022/01/23 01:41:12;;;;;;;78.95;41.55;;;;;;;4.49;95.34;102903.81;4966793;28;20066;-82
2022/01/23 01:43:39;;;;;;;82.38;43.38;;;;;;;4.43;95.45;102909.25;4967635;28;20055;-83
2022/01/23 01:46:06;;;;;;;80.45;43.10;;;;;;;4.49;95.43;102901.22;4967188;28;20051;-82
2022/01/23 01:48:35;;;;;;;79.47;43.65;;;;;;;4.25;95.27;102862.41;4968196;28;20055;-83
2022/01/23 01:51:08;;;;;;;77.68;41.22;;;;;;;4.34;95.09;102890.56;4967852;28;20066;-84
2022/01/23 01:53:35;;;;;;;;;;;;;;;4.41;95.66;102906.72;4968299;28;20115;-83
2022/01/23 01:56:06;;;;;;;78.40;42.05;;;;;;;4.47;95.42;102890.06;4965822;28;20320;-81
2022/01/23 02:09:50;;;;;;;79.57;43.85;;;;;;;4.38;95.72;102890.44;4964664;28;20058;-82
2022/01/23 02:12:51;;;;;;;86.18;43.15;;;;;;;4.21;96.19;102873.81;4964365;28;20074;-85
2022/01/23 02:15:39;;;;;;;81.53;43.03;;;;;;;4.18;95.93;102873.94;4964170;28;20059;-82
2022/01/23 02:18:19;;;;;;;85.15;43.90;;;;;;;4.28;95.86;102889.94;4964009;29;20130;-82
2022/01/23 02:23:59;;;;;;;80.10;42.03;;;;;;;4.18;95.82;102879.13;4964579;28;20605;-82
2022/01/23 02:51:52;;;;;;;80.85;42.70;;;;;;;4.22;96.44;102891.06;4964701;29;20106;-83
2022/01/23 02:54:40;;;;;;;82.97;43.83;;;;;;;4.33;96.40;102904.41;4966348;28;20047;-84
2022/01/23 02:57:09;;;;;;;83.15;43.45;;;;;;;4.23;96.50;102884.13;4969335;28;20082;-83
2022/01/23 02:59:38;;;;;;;87.18;44.15;;;;;;;4.25;95.92;102865.00;4970790;28;20047;-82
2022/01/23 03:02:13;;;;;;;83.53;43.47;;;;;;;4.45;95.72;102892.72;4972963;28;20075;-84
2022/01/23 03:04:49;;;;;;;80.13;43.75;;;;;;;4.33;95.40;102883.69;4974983;28;20050;-85
2022/01/23 03:07:32;;;;;;;84.40;42.92;;;;;;;4.15;96.12;102873.22;4979413;28;20066;-86
2022/01/23 03:10:04;;;;;;;85.15;43.85;;;;;;;4.26;95.92;102871.84;4979823;29;20047;-85
2022/01/23 03:15:19;;;;;;;84.65;44.70;;;;;;;4.41;95.65;102873.00;4967013;28;20055;-84
2022/01/23 03:26:17;;;;;;;88.32;45.15;;;;;;;4.28;96.46;102883.00;4967996;29;20534;-84
2022/01/23 03:29:16;;;;;;;84.82;42.40;;;;;;;4.39;96.12;102897.31;4970875;29;20079;-85
2022/01/23 03:31:44;;;;;;;91.30;43.72;;;;;;;4.27;96.08;102899.47;4969999;28;20055;-84
2022/01/23 03:34:11;;;;;;;88.40;44.28;;;;;;;4.32;96.40;102887.16;4969359;28;20051;-86
2022/01/23 03:36:42;;;;;;;94.30;45.22;;;;;;;4.26;96.22;102892.59;4968737;29;20051;-85
2022/01/23 03:39:09;;;;;;;90.68;45.67;;;;;;;4.25;96.30;102890.91;4965699;28;20055;-85
2022/01/23 03:41:39;;;;;;;96.10;47.17;;;;;;;4.29;96.24;102887.28;4971987;28;20062;-85
2022/01/23 03:44:08;;;;;;;90.07;44.28;;;;;;;4.24;96.35;102881.47;4965345;28;20075;-83
2022/01/23 03:46:48;;;;;;;90.05;45.08;;;;;;;4.15;96.88;102883.56;4963062;28;20055;-85
2022/01/23 03:49:31;;;;;;;92.45;45.95;;;;;;;4.05;97.13;102862.34;4974147;29;20034;-87
2022/01/23 03:51:59;;;;;;;88.63;44.85;;;;;;;4.04;97.28;102868.44;4975155;28;20416;-85
2022/01/23 03:54:26;;;;;;;91.15;45.03;;;;;;;4.07;96.56;102862.28;4969628;28;20061;-84
2022/01/23 03:56:56;;;;;;;92.35;46.50;;;;;;;4.13;97.15;102875.88;4965524;28;20051;-85
2022/01/23 03:59:23;;;;;;;88.65;44.15;;;;;;;4.13;97.03;102890.56;4965151;28;20059;-85
2022/01/23 04:01:50;;;;;;;86.43;44.83;;;;;;;4.18;97.04;102886.91;4963523;28;20479;-84
2022/01/23 04:04:28;;;;;;;87.75;44.47;;;;;;;4.10;96.99;102891.53;4961694;28;20097;-85
2022/01/23 04:06:55;;;;;;;88.90;44.72;;;;;;;4.18;96.83;102893.81;4964732;29;20055;-83
2022/01/23 04:09:22;;;;;;;89.60;42.42;;;;;;;4.24;96.82;102903.94;4966354;29;20063;-84
2022/01/23 04:11:49;;;;;;;87.32;43.05;;;;;;;4.21;97.01;102907.50;4966546;29;20098;-83
2022/01/23 04:14:19;;;;;;;90.35;44.25;;;;;;;4.24;96.73;102914.31;4967716;29;20044;-84
2022/01/23 04:17:14;;;;;;;92.88;42.78;;;;;;;4.33;96.74;102916.53;4965915;28;20554;-84
2022/01/23 04:19:56;;;;;;;85.40;42.80;;;;;;;4.23;96.20;102902.25;4964588;28;20082;-84
2022/01/23 05:01:44;;;;;;;88.22;44.92;;;;;;;3.95;96.77;102897.28;4962977;28;20093;-83
2022/01/23 05:04:15;;;;;;;82.25;42.47;;;;;;;4.15;97.17;102925.88;4965664;28;20109;-84
2022/01/23 05:06:45;;;;;;;86.85;44.05;;;;;;;4.19;97.28;102931.78;4965668;28;20069;-83
2022/01/23 05:09:13;;;;;;;89.25;45.70;;;;;;;4.20;97.13;102936.91;4966140;28;20417;-83
2022/01/23 05:11:48;;;;;;;87.75;45.80;;;;;;;4.20;96.51;102929.16;4966613;28;20138;-83
2022/01/23 05:14:26;;;;;;;87.28;45.47;;;;;;;4.08;97.39;102919.25;4967366;29;20059;-83
2022/01/23 05:16:56;;;;;;;88.75;47.22;;;;;;;4.12;96.95;102920.81;4967037;28;20055;-83
2022/01/23 05:19:24;;;;;;;82.82;45.58;;;;;;;4.21;97.18;102922.22;4966876;29;20055;-84
2022/01/23 05:22:17;;;;;;;88.18;44.95;;;;;;;4.23;96.67;102923.00;4967250;28;20062;-83
2022/01/23 05:24:49;;;;;;;88.10;46.25;;;;;;;4.27;96.49;102920.19;4968275;29;20490;-85
2022/01/23 05:27:16;;;;;;;87.60;44.63;;;;;;;4.23;96.85;102918.66;4967871;29;20058;-81
2022/01/23 05:29:43;;;;;;;83.88;44.45;;;;;;;4.27;96.64;102917.59;4962688;29;20294;-84
2022/01/23 05:32:14;;;;;;;86.05;45.20;;;;;;;4.18;96.53;102930.94;4962801;28;20086;-83
2022/01/23 05:34:44;;;;;;;82.78;44.40;;;;;;;4.15;96.90;102912.94;4965484;29;20073;-83
2022/01/23 05:37:10;;;;;;;95.03;47.47;;;;;;;4.13;97.40;102916.47;4965220;28;20062;-83
2022/01/23 05:39:37;;;;;;;94.20;47.13;;;;;;;4.14;97.07;102918.16;4964223;29;20051;-81
2022/01/23 05:42:07;;;;;;;88.65;45.13;;;;;;;4.15;97.17;102905.16;4965330;29;20519;-82
2022/01/23 05:44:35;;;;;;;94.15;45.42;;;;;;;4.15;97.05;102914.66;4965762;28;20634;-82
2022/01/23 05:47:02;;;;;;;89.60;45.78;;;;;;;4.10;97.33;102917.44;4965011;29;20061;-82
2022/01/23 05:49:29;;;;;;;92.40;45.17;;;;;;;4.08;97.28;102913.22;4964342;28;20134;-81
2022/01/23 05:51:57;;;;;;;91.28;45.70;;;;;;;4.13;97.16;102924.25;4964444;28;20129;-82
2022/01/23 05:54:24;;;;;;;91.68;47.42;;;;;;;3.98;97.73;102902.34;5018614;23;20084;-87
2022/01/23 05:56:51;;;;;;;93.75;45.35;;;;;;;4.10;97.31;102930.38;5029850;28;20041;-88
2022/01/23 05:59:20;;;;;;;88.90;43.13;;;;;;;4.05;97.08;102942.66;5040258;28;20077;-86
2022/01/23 06:01:47;;;;;;;89.20;45.85;;;;;;;4.12;97.31;102938.94;5042136;28;20045;-86
2022/01/23 06:04:14;;;;;;;90.97;46.42;;;;;;;4.06;97.35;102931.41;5048331;28;20068;-88
2022/01/23 06:06:40;;;;;;;90.65;44.85;;;;;;;4.03;97.73;102941.88;5042140;28;20101;-86
2022/01/23 06:09:09;;;;;;;81.07;44.85;;;;;;;4.06;97.43;102936.59;5041547;28;20551;-85
2022/01/23 06:11:35;;;;;;;82.75;45.08;;;;;;;4.06;97.73;102931.41;5044035;28;20068;-85
2022/01/23 06:14:07;;;;;;;83.78;44.15;;;;;;;4.19;97.30;102932.63;5039800;28;20049;-87
2022/01/23 06:16:33;;;;;;;88.50;46.22;;;;;;;4.12;97.33;102926.00;5038635;28;20085;-86
2022/01/23 06:19:00;;;;;;;89.97;42.38;;;;;;;4.07;97.64;102924.47;5040646;28;20042;-86
2022/01/23 06:21:27;;;;;;;87.40;43.75;;;;;;;4.05;97.45;102926.28;5041099;28;20053;-86
2022/01/23 06:24:04;;;;;;;81.78;41.10;;;;;;;4.02;98.01;102919.47;5041208;28;20085;-86
2022/01/23 06:26:42;;;;;;;78.32;40.67;;;;;;;4.09;97.81;102933.88;5040988;28;20059;-86
2022/01/23 06:29:09;;;;;;;86.40;43.75;;;;;;;3.99;97.87;102924.75;5042704;28;20056;-86
2022/01/23 06:31:36;;;;;;;83.47;40.83;;;;;;;3.93;98.15;102943.13;5043620;28;20053;-86
2022/01/23 06:34:02;;;;;;;83.68;41.58;;;;;;;3.87;98.53;102917.44;5042970;28;20128;-87
2022/01/23 06:36:29;;;;;;;90.32;43.03;;;;;;;3.89;98.52;102936.34;5044638;28;20088;-85
2022/01/23 06:38:56;;;;;;;87.05;45.20;;;;;;;3.88;98.78;102948.47;5047576;28;20050;-85
2022/01/23 06:41:22;;;;;;;87.85;43.55;;;;;;;3.88;98.79;102947.63;5044534;28;20045;-85
2022/01/23 06:43:51;;;;;;;96.00;46.00;;;;;;;3.80;99.17;102945.31;5035686;28;20489;-86
2022/01/23 06:46:17;;;;;;;94.93;44.13;;;;;;;3.89;98.92;102950.16;5036237;28;20077;-86
2022/01/23 06:48:44;;;;;;;81.95;40.00;;;;;;;3.96;99.04;102962.00;5034327;28;20187;-85
2022/01/23 06:51:11;;;;;;;88.10;40.33;;;;;;;3.93;98.50;102958.66;5035069;28;20170;-85
2022/01/23 06:53:38;;;;;;;93.10;42.50;;;;;;;3.95;98.41;102967.22;5034302;28;20432;-86
2022/01/23 06:56:04;;;;;;;79.85;40.38;;;;;;;4.03;97.90;102967.78;5039500;28;20085;-85
2022/01/23 06:58:31;;;;;;;76.85;37.80;;;;;;;4.02;98.07;102958.31;5051509;28;20045;-86
2022/01/23 07:00:59;;;;;;;74.03;38.90;;;;;;;4.08;98.20;102958.09;5028296;28;20097;-86
2022/01/23 07:03:26;;;;;;;74.93;38.60;;;;;;;4.12;97.96;102967.44;5017012;28;20136;-86
2022/01/23 07:05:59;;;;;;;76.03;40.92;;;;;;;4.14;97.57;102964.81;5017548;28;20127;-86
2022/01/23 07:08:27;;;;;;;74.43;37.47;;;;;;;4.14;96.75;102957.03;5001131;28;20042;-86
2022/01/23 07:11:00;;;;;;;69.97;36.17;;;;;;;4.03;97.46;102947.06;5021509;28;20129;-87
2022/01/23 07:13:33;;;;;;;67.38;36.67;;;;;;;4.11;97.64;102963.16;5022019;28;20057;-87
2022/01/23 07:16:07;;;;;;;67.22;37.35;;;;;;;4.00;97.88;102953.19;5025806;28;20056;-88
2022/01/23 07:18:44;;;;;;;75.32;37.50;;;;;;;3.95;97.56;102939.56;5022548;28;20098;-87
2022/01/23 07:21:15;;;;;;;71.70;35.80;;;;;;;4.08;97.73;102976.25;5038496;28;20057;-86
2022/01/23 07:23:49;;;;;;;70.28;36.47;;;;;;;4.02;98.27;102973.03;5041260;28;20042;-86
2022/01/23 07:26:23;;;;;;;74.18;38.00;;;;;;;3.83;97.99;102959.88;5041541;28;20049;-86
2022/01/23 07:28:56;;;;;;;73.53;38.83;;;;;;;3.85;98.01;102963.28;5023439;28;20060;-88
2022/01/23 07:31:55;;;;;;;77.20;39.47;;;;;;;3.94;97.77;102973.31;5032991;28;20060;-87
2022/01/23 07:34:26;;;;;;;72.43;37.40;;;;;;;3.91;97.85;102968.22;5039540;28;20045;-85
2022/01/23 07:36:53;;;;;;;66.85;37.63;;;;;;;4.01;98.01;102974.78;5034321;28;20056;-84
2022/01/23 07:39:20;;;;;;;68.55;36.88;;;;;;;3.92;98.12;102955.22;5025457;28;20484;-85
2022/01/23 07:41:49;;;;;;;73.15;36.83;;;;;;;4.08;98.07;102978.84;5019185;28;20502;-87
2022/01/23 07:44:20;;;;;;;72.20;38.13;;;;;;;3.88;97.27;102939.84;5036945;28;20073;-84
2022/01/23 07:46:57;;;;;;;74.47;38.10;;;;;;;3.82;97.85;102959.03;5001738;28;20049;-85
2022/01/23 07:49:25;;;;;;;74.20;37.83;;;;;;;3.81;97.47;102965.13;5006349;28;20046;-83
2022/01/23 08:06:41;;;;;;;71.63;37.70;;;;;;;4.00;97.78;103005.00;5000373;28;20115;-86
2022/01/23 08:09:09;;;;;;;77.00;38.60;;;;;;;4.04;98.22;103008.34;5021646;28;20045;-85
2022/01/23 08:11:36;;;;;;;78.13;38.75;;;;;;;4.03;97.63;103000.63;5020495;28;20084;-85
2022/01/23 08:14:03;;;;;;;75.20;39.17;;;;;;;4.10;97.63;103009.88;5019713;28;20092;-84
2022/01/23 08:16:30;;;;;;;72.95;39.80;;;;;;;4.16;98.51;103023.44;5022341;28;20050;-85
2022/01/23 08:18:57;;;;;;;75.53;38.78;;;;;;;4.16;98.49;103020.00;5031728;28;20074;-89
2022/01/23 08:21:23;;;;;;;71.95;38.55;;;;;;;4.18;97.44;103011.28;5023719;28;20100;-86
2022/01/23 08:23:54;;;;;;;74.68;38.55;;;;;;;4.22;97.93;103024.97;5027570;28;20080;-85
2022/01/23 08:26:22;;;;;;;78.55;39.42;;;;;;;4.19;97.50;103028.53;5031074;28;20573;-84
2022/01/23 08:28:49;;;;;;;75.63;40.10;;;;;;;4.23;98.22;103031.84;5023523;28;20093;-85
2022/01/23 08:31:15;;;;;;;76.70;40.47;;;;;;;4.23;97.82;103026.66;5016441;28;20479;-84
2022/01/23 08:33:42;;;;;;;68.93;38.78;;;;;;;4.09;98.06;103008.19;5016642;28;20106;-84
2022/01/23 08:36:09;;;;;;;70.95;36.83;;;;;;;4.19;97.42;103020.75;5016994;28;20108;-84
2022/01/23 08:38:35;;;;;;;73.22;38.50;;;;;;;4.33;97.54;103039.19;5017295;28;20125;-84
2022/01/23 08:43:48;;;;;;;68.85;36.33;;;;;;;4.27;97.58;103034.22;5018092;28;20068;-83
2022/01/23 08:46:15;;;;;;;69.82;38.72;;;;;;;4.29;97.24;103045.41;5017821;28;20064;-87
2022/01/23 08:48:45;;;;;;;72.10;38.28;;;;;;;4.30;97.20;103041.91;5019756;28;20046;-85
2022/01/23 08:51:13;;;;;;;69.93;36.95;;;;;;;4.31;97.34;103038.41;5017674;28;20096;-84
2022/01/23 08:53:41;;;;;;;81.15;39.58;;;;;;;4.27;96.66;103020.44;5016706;28;20049;-85
2022/01/23 08:56:11;;;;;;;72.47;38.35;;;;;;;4.20;96.77;103022.44;5020362;28;20070;-84
2022/01/23 08:58:39;;;;;;;74.32;38.45;;;;;;;4.33;96.75;103015.88;5019569;28;20112;-86
2022/01/23 09:01:06;;;;;;;71.50;37.42;;;;;;;4.51;96.13;103031.63;5018469;28;20058;-87
2022/01/23 09:03:33;;;;;;;69.95;37.65;;;;;;;4.48;95.06;103039.53;5018887;28;20042;-86
2022/01/23 09:06:00;;;;;;;70.57;36.60;;;;;;;4.42;95.67;103043.19;5034027;28;20042;-86
2022/01/23 09:08:26;;;;;;;61.45;35.80;;;;;;;4.39;95.68;103039.88;5034094;28;20076;-87
2022/01/23 09:10:56;;;;;;;70.90;36.55;;;;;;;4.48;95.77;103047.31;5035662;28;20045;-92
2022/01/23 09:13:51;;;;;;;70.90;38.20;;;;;;;4.31;95.90;103017.66;5037145;28;20044;-93
2022/01/23 09:16:18;;;;;;;67.97;35.95;;;;;;;4.51;95.92;103040.25;5024821;28;20068;-89
2022/01/23 09:18:45;;;;;;;65.88;35.90;;;;;;;4.46;96.35;103023.19;5021138;28;20049;-86
2022/01/23 09:21:12;;;;;;;64.72;35.47;;;;;;;4.59;96.17;103024.41;5019736;28;20085;-85
2022/01/23 09:23:39;;;;;;;66.82;36.53;;;;;;;4.57;96.51;103021.03;5021099;28;20467;-86
2022/01/23 09:26:08;;;;;;;66.65;36.25;;;;;;;4.54;95.83;103021.16;5020878;28;20077;-86
2022/01/23 09:28:39;;;;;;;80.60;40.72;;;;;;;4.56;95.72;103025.38;5020764;28;20129;-86
2022/01/23 09:31:06;;;;;;;65.88;37.58;;;;;;;4.63;95.90;103034.63;5023795;28;20167;-86
2022/01/23 09:33:32;;;;;;;70.90;36.70;;;;;;;4.60;96.08;103032.13;5019708;28;20063;-86
2022/01/23 09:35:59;;;;;;;73.18;36.95;;;;;;;4.42;96.07;103011.25;5017971;28;20054;-85
2022/01/23 09:46:33;;;;;;;67.40;38.30;;;;;;;4.45;95.89;103013.72;5016740;28;20554;-86
2022/01/23 09:49:00;;;;;;;73.28;39.03;;;;;;;4.59;96.05;103039.97;5017758;28;20042;-85
2022/01/23 09:51:29;;;;;;;68.60;37.53;;;;;;;4.53;96.32;103019.47;5016791;28;20574;-84
2022/01/23 09:53:56;;;;;;;79.18;39.65;;;;;;;4.70;95.59;103055.13;5019351;28;20050;-83
2022/01/23 09:56:27;;;;;;;73.18;39.13;;;;;;;4.67;95.37;103043.13;5021410;28;20081;-85
2022/01/23 09:58:57;;;;;;;65.30;36.50;;;;;;;4.77;95.82;103049.63;5020951;28;20050;-83
2022/01/23 10:01:25;;;;;;;67.80;38.40;;;;;;;4.79;95.76;103053.00;5019681;28;20460;-84
2022/01/23 10:03:51;;;;;;;72.95;37.67;;;;;;;4.76;95.52;103053.13;5018045;28;20137;-83
2022/01/23 10:06:18;;;;;;;66.38;36.42;;;;;;;4.82;95.29;103055.47;5018996;28;20089;-83
2022/01/23 10:08:45;;;;;;;69.35;36.78;;;;;;;4.80;94.87;103059.03;5018982;28;20136;-86
2022/01/23 10:11:13;;;;;;;66.93;38.03;;;;;;;4.79;94.73;103052.16;5019841;28;20072;-86
2022/01/23 10:13:42;;;;;;;66.05;35.50;;;;;;;4.82;95.56;103052.88;5019762;28;20109;-85
2022/01/23 10:16:10;;;;;;;64.60;35.78;;;;;;;4.83;95.69;103057.16;5020445;28;20046;-84
2022/01/23 10:18:38;;;;;;;67.95;38.00;;;;;;;4.79;95.25;103046.97;5018583;28;20069;-85
2022/01/23 10:21:04;;;;;;;70.90;37.10;;;;;;;4.87;94.96;103061.34;5018520;28;20417;-84
2022/01/23 10:23:31;;;;;;;61.90;35.20;;;;;;;4.86;94.67;103049.28;5018092;28;20148;-83
2022/01/23 10:25:59;;;;;;;67.78;38.75;;;;;;;4.91;94.67;103047.34;5018707;28;20546;-83
2022/01/23 10:28:29;;;;;;;66.50;37.03;;;;;;;4.90;94.75;103052.59;5017662;28;20049;-86
2022/01/23 10:30:58;;;;;;;65.45;36.40;;;;;;;4.96;94.21;103063.56;5018134;28;20073;-86
2022/01/23 10:33:28;;;;;;;65.80;36.80;;;;;;;5.04;94.61;103057.25;5020598;28;20058;-85
2022/01/23 10:35:59;;;;;;;62.28;36.13;;;;;;;5.06;93.90;103065.81;5020880;28;20109;-85
2022/01/23 10:38:30;;;;;;;69.18;38.13;;;;;;;5.00;93.87;103066.91;5020045;28;20054;-85
2022/01/23 10:41:07;;;;;;;70.28;39.47;;;;;;;4.98;93.84;103063.50;5020546;28;20046;-85
2022/01/23 10:46:57;;;;;;;66.85;36.75;;;;;;;5.02;93.42;103054.72;5017658;28;20521;-85
2022/01/23 10:49:48;;;;;;;66.28;37.00;;;;;;;5.03;93.26;103055.56;5017217;28;20046;-84
2022/01/23 10:52:29;;;;;;;68.32;36.92;;;;;;;5.21;92.79;103058.22;5027620;28;20076;-85
2022/01/23 10:54:55;;;;;;;76.07;40.75;;;;;;;5.16;92.56;103056.75;5021494;28;20553;-85
2022/01/23 10:57:23;;;;;;;70.63;38.08;;;;;;;5.08;93.20;103054.47;5021848;28;20121;-84
2022/01/23 10:59:52;;;;;;;67.35;36.60;;;;;;;5.04;92.69;103039.06;5031341;28;20040;-84
2022/01/23 11:02:22;;;;;;;65.97;36.92;;;;;;;5.11;92.47;103045.72;5022046;28;20105;-86
2022/01/23 11:04:58;;;;;;;65.53;35.28;;;;;;;5.13;92.21;103047.34;5018819;28;20050;-85
2022/01/23 11:07:27;;;;;;;69.32;35.25;;;;;;;4.99;92.71;103050.47;5009660;28;20050;-85
2022/01/23 11:10:03;;;;;;;61.72;33.92;;;;;;;4.96;92.26;103048.00;5021870;28;20125;-85
2022/01/23 11:18:04;;;;;;;66.57;35.33;;;;;;;5.04;92.67;103052.06;4971559;28;20050;-85
2022/01/23 11:20:35;;;;;;;72.80;35.55;;;;;;;5.21;92.72;103047.00;5004571;28;20157;-85
2022/01/23 11:23:13;;;;;;;61.45;35.10;;;;;;;5.31;91.56;103035.34;5012194;28;20550;-85
2022/01/23 11:25:41;;;;;;;60.35;33.90;;;;;;;5.23;90.49;103040.84;5013263;28;20050;-84
2022/01/23 11:28:08;;;;;;;62.03;34.75;;;;;;;5.16;91.00;103036.00;5015434;28;20084;-86
2022/01/23 11:30:37;;;;;;;60.78;35.25;;;;;;;5.24;90.94;103028.72;5001138;28;20133;-85
2022/01/23 11:33:04;;;;;;;57.50;34.38;;;;;;;5.33;91.16;103025.75;5020717;28;20050;-85
2022/01/23 11:35:33;;;;;;;59.70;33.05;;;;;;;5.19;90.74;103022.88;5008837;28;20057;-85
2022/01/23 11:37:59;;;;;;;58.72;33.92;;;;;;;5.30;90.44;103028.47;5010500;28;20109;-85
2022/01/23 11:40:38;;;;;;;58.45;32.92;;;;;;;5.33;90.53;103025.75;5016023;28;20153;-85
2022/01/23 11:54:03;;;;;;;57.85;34.13;;;;;;;5.62;90.60;103022.78;5014111;28;20092;-84
2022/01/23 11:56:37;;;;;;;86.68;55.72;;;;;;;5.73;89.80;103008.44;5019646;28;20056;-86
2022/01/23 11:59:23;;;;;;;61.65;39.10;;;;;;;5.70;90.36;103018.97;5019808;28;20054;-84
2022/01/23 12:02:30;;;;;;;59.08;33.88;;;;;;;5.67;89.81;103014.78;5021123;28;20056;-83
2022/01/23 12:05:25;;;;;;;62.03;33.47;;;;;;;5.73;90.39;103013.66;5002986;28;20411;-84
2022/01/23 12:08:39;;;;;;;57.90;34.92;;;;;;;5.78;90.08;103009.09;5002823;28;20050;-84
2022/01/23 12:11:42;;;;;;;58.33;33.05;;;;;;;5.76;90.11;103013.50;4948390;29;20088;-84
2022/01/23 12:17:39;;;;;;;58.45;34.42;;;;;;;5.87;89.72;103009.53;5023568;28;20304;-83
2022/01/23 12:20:07;;;;;;;62.13;34.67;;;;;;;5.77;88.91;102991.81;5023356;28;20478;-83
2022/01/23 12:22:40;;;;;;;56.35;32.03;;;;;;;5.78;89.62;102993.50;5023045;28;20099;-82
2022/01/23 12:25:23;;;;;;;55.13;32.65;;;;;;;5.68;88.92;102999.09;5022967;28;20049;-84
2022/01/23 12:28:11;;;;;;;54.83;32.78;;;;;;;5.71;90.23;103002.47;5022544;28;20080;-81
2022/01/23 12:30:42;;;;;;;57.40;34.75;;;;;;;5.78;89.95;102999.56;5023376;28;20077;-84
2022/01/23 12:33:21;;;;;;;62.10;34.63;;;;;;;5.77;89.07;102991.81;5023622;28;20374;-83
2022/01/23 12:35:51;;;;;;;61.15;32.92;;;;;;;5.93;88.92;102990.28;5014367;28;20054;-84
2022/01/23 12:38:19;;;;;;;63.10;37.03;;;;;;;5.86;89.25;102991.44;5002865;28;20113;-83
2022/01/23 12:40:47;;;;;;;54.88;33.03;;;;;;;5.78;88.96;102977.91;5002441;28;20061;-84
2022/01/23 12:43:18;;;;;;;60.10;33.85;;;;;;;5.78;89.28;102983.13;5002937;28;20078;-84
2022/01/23 12:45:52;;;;;;;59.58;33.25;;;;;;;5.77;88.41;102986.63;5014207;28;20074;-85
2022/01/23 12:48:45;;;;;;;56.25;31.83;;;;;;;5.77;88.42;102977.09;5032424;28;20038;-83
2022/01/23 12:51:32;;;;;;;86.40;47.30;;;;;;;5.84;88.51;102973.31;5015586;28;20057;-83
2022/01/23 12:54:16;;;;;;;62.10;36.42;;;;;;;5.85;87.93;102966.34;5024916;28;20141;-83
2022/01/23 12:56:45;;;;;;;51.72;31.73;;;;;;;5.80;87.62;102971.75;5018609;28;20035;-83
2022/01/23 12:59:21;;;;;;;57.35;32.85;;;;;;;5.76;87.37;102967.59;5018387;28;20090;-84
2022/01/23 13:01:51;;;;;;;55.22;31.92;;;;;;;5.81;88.47;102970.00;5016973;28;20106;-85
2022/01/23 13:04:18;;;;;;;51.25;31.08;;;;;;;5.91;87.91;102960.91;5023116;28;20109;-84
2022/01/23 13:06:50;;;;;;;52.47;31.20;;;;;;;5.87;87.87;102957.56;5035477;28;20026;-82
2022/01/23 13:09:24;;;;;;;52.72;31.38;;;;;;;5.72;87.02;102962.59;5028867;28;20030;-82
2022/01/23 13:12:03;;;;;;;47.72;29.42;;;;;;;5.60;87.01;102959.66;5028562;28;20109;-82
2022/01/23 13:14:48;;;;;;;47.30;28.98;;;;;;;5.64;86.70;102963.81;5018734;28;20034;-83
2022/01/23 13:17:35;;;;;;;57.05;31.25;;;;;;;5.59;85.99;102957.97;5029577;28;20101;-82
2022/01/23 13:29:08;;;;;;;52.90;30.40;;;;;;;5.63;87.58;102959.53;5027250;28;20061;-84
2022/01/23 13:31:17;;;;;;;52.22;30.90;;;;;;;5.68;87.54;102961.91;5025610;28;20553;-84
2022/01/23 13:33:44;;;;;;;55.53;32.03;;;;;;;5.73;87.13;102953.91;5025614;28;20566;-84
2022/01/23 13:36:15;;;;;;;50.20;30.35;;;;;;;5.84;87.08;102951.69;4990198;28;20514;-84
2022/01/23 13:57:39;;;;;;;46.47;27.00;;;;;;;5.69;85.94;102945.41;5597572;23;20046;-85
2022/01/23 14:00:13;;;;;;;47.92;28.90;;;;;;;5.67;86.72;102950.66;4976048;28;20125;-83
2022/01/23 14:02:45;;;;;;;49.72;28.20;;;;;;;5.69;86.81;102958.38;4992145;28;20055;-82
2022/01/23 14:05:13;;;;;;;44.92;26.58;;;;;;;5.65;86.75;102952.50;4983096;28;20047;-82
2022/01/23 14:07:42;;;;;;;45.88;27.13;;;;;;;5.74;86.84;102964.22;4981155;28;20146;-83
2022/01/23 14:15:25;;;;;;;51.78;31.08;;;;;;;5.63;87.63;102953.50;4979507;28;20110;-81
2022/01/23 14:18:30;;;;;;;47.90;26.98;;;;;;;5.47;87.93;102940.31;4972612;28;20103;-80
2022/01/23 14:21:22;;;;;;;48.83;28.45;;;;;;;5.58;87.90;102955.44;4966904;28;20043;-78
2022/01/23 14:24:00;;;;;;;46.78;27.10;;;;;;;5.74;87.20;102950.41;4955192;29;20048;-79
2022/01/23 14:27:06;;;;;;;49.33;28.85;;;;;;;5.58;88.32;102935.50;4955863;29;20055;-80
2022/01/23 14:33:20;;;;;;;50.33;28.13;;;;;;;5.58;88.36;102952.84;5143035;23;20060;-80
2022/01/23 14:36:19;;;;;;;46.80;28.38;;;;;;;5.55;87.93;102917.47;4935229;29;20479;-79
2022/01/23 14:39:15;;;;;;;56.13;29.65;;;;;;;5.59;88.27;102928.56;4939091;29;20055;-80
2022/01/23 14:41:52;;;;;;;55.13;29.70;;;;;;;5.71;88.11;102945.31;4998833;23;20121;-80
2022/01/23 14:47:18;;;;;;;56.08;31.58;;;;;;;5.78;88.17;102939.78;4935721;28;20047;-80
2022/01/23 14:50:23;;;;;;;;;;;;;;;;;;;;;
2022/01/23 14:53:07;;;;;;;53.28;31.48;;;;;;;5.63;88.36;102949.13;4950967;29;20125;-78
2022/01/23 14:55:34;;;;;;;56.30;31.23;;;;;;;5.73;88.16;102938.31;4990102;22;20109;-78
2022/01/23 14:58:02;;;;;;;56.78;31.73;;;;;;;5.75;88.92;102936.50;4988762;28;20124;-79
2022/01/23 15:00:31;;;;;;;52.40;30.88;;;;;;;5.75;88.58;102933.88;5006428;28;20046;-79
2022/01/23 15:03:01;;;;;;;55.15;31.85;;;;;;;5.76;88.31;102940.78;5004514;28;20054;-79
2022/01/23 15:05:35;;;;;;;56.75;32.65;;;;;;;5.78;88.36;102941.56;5006293;28;20470;-80